Terminal Aerodrome Forecast
Issued by NWS Greer, SC

Home | Current Version | Previous Version | Text Only | Print | Product List | Glossary On
Versions: 1 2 3 4 5 6 7 8 9 10 11 12 13 14 15 16 17
108
FTUS42 KGSP 051739
TAFGSP
TAF
KGSP 051739Z 0518/0618 VRB03KT P6SM SCT015 BKN070
     FM052200 07004KT P6SM SCT030 BKN060
      TEMPO 0522/0602 5SM -RA BR OVC030
     FM060200 07006KT 3SM BR OVC015
     FM060400 06007KT 2SM RA BR OVC006
     FM061400 05009KT 4SM -RA OVC008
     FM061600 05007KT P6SM OVC008=

USA.gov is the U.S. government's official web portal to all federal, state and local government web resources and services.